Time;durP1;ratioP1;P1;durP2;ratioP2;P2;SDS_P1;SDS_P2;PMS_P1;PMS_P2;Temp;Humidity;BMP_temperature;BMP_pressure;BME280_temperature;BME280_humidity;BME280_pressure;Samples;Min_cycle;Max_cycle;Signal;HPM_P1;HPM_P2
2021/04/28 00:01:20;;;;;;;19.00;9.52;;;;;;;14.86;82.12;99498.69;5055959;28;20033;-73
2021/04/28 00:03:46;;;;;;;19.50;9.35;;;;;;;14.78;81.86;99491.53;5056201;28;20032;-73
2021/04/28 00:06:13;;;;;;;28.17;11.35;;;;;;;14.90;81.91;99500.25;5056168;28;20036;-73
2021/04/28 00:08:39;;;;;;;20.63;8.88;;;;;;;14.96;81.50;99495.03;5055589;28;20056;-73
2021/04/28 00:11:05;;;;;;;23.60;10.20;;;;;;;15.00;81.65;99500.63;5056344;28;20021;-73
2021/04/28 00:13:30;;;;;;;21.73;10.95;;;;;;;15.00;80.97;99493.00;5055983;28;20389;-73
2021/04/28 00:15:56;;;;;;;27.50;11.27;;;;;;;14.97;81.57;99477.03;5055611;28;20025;-73
2021/04/28 00:18:22;;;;;;;23.35;10.45;;;;;;;15.10;80.74;99475.34;5055366;28;20376;-73
2021/04/28 00:20:51;;;;;;;23.63;9.88;;;;;;;15.01;80.85;99460.97;5056176;28;20032;-73
2021/04/28 00:23:22;;;;;;;25.40;8.63;;;;;;;14.98;81.32;99463.81;5057113;28;20119;-73
2021/04/28 00:25:48;;;;;;;29.30;9.27;;;;;;;14.85;81.42;99469.09;5056483;28;20032;-73
2021/04/28 00:28:14;;;;;;;26.17;9.48;;;;;;;14.80;82.38;99461.91;5055753;28;20478;-73
2021/04/28 00:30:40;;;;;;;24.85;10.70;;;;;;;14.67;82.95;99463.59;5055390;28;20025;-73
2021/04/28 00:33:06;;;;;;;26.10;10.13;;;;;;;14.63;83.25;99458.00;5055936;28;20056;-73
2021/04/28 00:35:32;;;;;;;31.77;11.38;;;;;;;14.68;83.12;99459.59;5055268;28;20471;-73
2021/04/28 00:37:58;;;;;;;21.63;9.25;;;;;;;14.58;83.75;99455.63;5055328;28;20029;-73
2021/04/28 00:40:32;;;;;;;29.95;10.13;;;;;;;14.56;84.04;99458.06;5055776;28;20036;-73
2021/04/28 00:42:59;;;;;;;20.98;9.73;;;;;;;14.62;83.71;99456.41;5038491;28;20044;-73
2021/04/28 00:45:26;;;;;;;28.45;10.45;;;;;;;14.67;83.55;99456.00;5055688;28;20368;-73
2021/04/28 00:47:53;;;;;;;31.30;11.02;;;;;;;14.68;83.18;99448.38;5056685;28;20025;-73
2021/04/28 00:50:25;;;;;;;29.95;10.40;;;;;;;14.75;82.94;99447.53;5055872;28;20147;-73
2021/04/28 00:52:51;;;;;;;20.73;8.95;;;;;;;14.86;81.99;99443.50;5055553;28;20103;-73
2021/04/28 00:55:17;;;;;;;24.35;10.38;;;;;;;14.83;82.69;99447.09;5055232;28;20025;-73
2021/04/28 00:57:43;;;;;;;22.80;9.65;;;;;;;14.92;81.97;99453.06;5054854;28;20123;-73
2021/04/28 01:00:13;;;;;;;26.75;9.80;;;;;;;14.93;81.77;99456.66;5055217;28;20128;-73
2021/04/28 01:02:39;;;;;;;28.95;9.30;;;;;;;14.80;82.03;99442.31;5055647;28;20344;-73
2021/04/28 01:05:06;;;;;;;25.17;9.95;;;;;;;14.82;82.19;99439.13;5054878;28;20040;-73
2021/04/28 01:07:35;;;;;;;19.20;8.70;;;;;;;14.75;82.11;99444.75;5055164;28;20404;-72
2021/04/28 01:10:05;;;;;;;25.52;9.98;;;;;;;14.67;82.78;99441.19;5039511;28;20024;-73
2021/04/28 01:12:31;;;;;;;22.73;8.57;;;;;;;14.72;82.35;99442.78;5056404;28;20040;-73
2021/04/28 01:14:58;;;;;;;18.65;8.55;;;;;;;14.71;82.45;99435.59;5055901;28;20056;-73
2021/04/28 01:17:26;;;;;;;29.42;8.93;;;;;;;14.72;82.31;99437.97;5056154;28;20107;-73
2021/04/28 01:19:52;;;;;;;26.73;9.00;;;;;;;14.87;81.83;99433.09;5054917;28;20119;-74
2021/04/28 01:22:18;;;;;;;21.25;9.13;;;;;;;14.71;82.49;99435.59;5056203;28;20059;-73
2021/04/28 01:24:44;;;;;;;25.35;8.63;;;;;;;14.76;82.08;99427.56;5057788;28;20025;-73
2021/04/28 01:27:16;;;;;;;18.50;7.50;;;;;;;14.81;82.23;99432.72;5055035;28;20383;-73
2021/04/28 01:29:44;;;;;;;19.48;7.53;;;;;;;14.63;82.36;99429.22;5054335;28;20028;-73
2021/04/28 01:32:14;;;;;;;24.35;9.52;;;;;;;14.57;82.78;99431.66;5054541;28;20064;-73
2021/04/28 01:34:41;;;;;;;18.88;8.32;;;;;;;14.54;83.16;99426.88;5054717;28;20084;-73
2021/04/28 01:37:07;;;;;;;20.75;7.75;;;;;;;14.50;82.97;99420.50;5037628;28;20029;-73
2021/04/28 01:39:35;;;;;;;26.35;9.45;;;;;;;14.59;82.33;99420.81;5054401;28;20396;-73
2021/04/28 01:42:00;;;;;;;22.73;8.93;;;;;;;14.58;82.05;99421.25;5054099;28;20074;-73
2021/04/28 01:44:30;;;;;;;20.50;8.57;;;;;;;14.50;82.64;99423.31;5054881;28;20112;-73
2021/04/28 01:46:56;;;;;;;18.55;8.70;;;;;;;14.44;83.03;99422.09;5054279;28;20028;-73
2021/04/28 01:49:23;;;;;;;20.02;7.53;;;;;;;14.44;83.35;99421.31;5054936;28;20029;-73
2021/04/28 01:51:53;;;;;;;21.67;9.75;;;;;;;14.41;83.07;99422.91;5053911;28;20115;-73
2021/04/28 01:54:20;;;;;;;19.95;8.70;;;;;;;14.40;83.15;99424.13;5053854;28;20029;-72
2021/04/28 01:56:48;;;;;;;17.15;8.07;;;;;;;14.39;82.85;99420.53;5053751;28;20020;-72
2021/04/28 01:59:25;;;;;;;26.40;9.00;;;;;;;14.38;82.82;99418.13;5054310;28;20056;-72
2021/04/28 02:01:53;;;;;;;21.95;7.72;;;;;;;14.33;83.11;99424.16;5050879;28;20401;-72
2021/04/28 02:04:19;;;;;;;15.50;8.32;;;;;;;14.31;83.20;99429.34;5053493;28;20028;-73
2021/04/28 02:06:47;;;;;;;27.75;8.75;;;;;;;14.32;83.10;99436.53;5053606;28;20036;-73
2021/04/28 02:09:14;;;;;;;19.77;8.65;;;;;;;14.26;83.45;99429.75;5053121;28;20144;-73
2021/04/28 02:11:39;;;;;;;28.52;8.88;;;;;;;14.23;83.55;99428.59;5053755;28;20056;-73
2021/04/28 02:14:05;;;;;;;18.92;7.90;;;;;;;14.45;82.09;99420.09;5053459;28;20114;-73
2021/04/28 02:16:32;;;;;;;25.80;8.60;;;;;;;14.49;82.10;99420.88;5036968;28;20424;-73
2021/04/28 02:19:03;;;;;;;21.35;8.80;;;;;;;14.46;82.32;99430.88;5054698;28;20096;-72
2021/04/28 02:21:29;;;;;;;22.77;8.50;;;;;;;14.28;82.72;99425.38;5037226;28;20120;-73
2021/04/28 02:23:56;;;;;;;25.23;19.70;;;;;;;14.23;83.32;99430.59;5053312;28;20458;-73
2021/04/28 02:26:21;;;;;;;30.42;18.75;;;;;;;14.16;83.45;99421.00;5053232;28;20045;-73
2021/04/28 02:28:50;;;;;;;36.45;19.60;;;;;;;14.15;83.21;99425.00;5053176;28;20068;-73
2021/04/28 02:31:18;;;;;;;28.02;14.65;;;;;;;14.12;83.27;99420.25;5053412;28;20427;-73
2021/04/28 02:33:43;;;;;;;32.78;17.42;;;;;;;14.07;83.09;99420.66;5053349;28;20048;-73
2021/04/28 02:36:10;;;;;;;39.97;27.45;;;;;;;14.00;82.28;99406.69;5052930;28;20025;-72
2021/04/28 02:38:47;;;;;;;36.22;23.58;;;;;;;14.05;82.29;99409.06;5053038;28;20033;-73
2021/04/28 02:41:13;;;;;;;36.92;22.02;;;;;;;14.01;82.10;99410.25;5053521;28;20471;-73
2021/04/28 02:43:41;;;;;;;45.28;37.65;;;;;;;13.97;82.23;99413.09;5053206;28;20498;-73
2021/04/28 02:46:10;;;;;;;37.03;29.77;;;;;;;13.96;82.46;99397.53;5053858;28;20025;-73
2021/04/28 02:48:38;;;;;;;34.83;27.08;;;;;;;13.99;82.58;99407.09;5055248;28;20032;-73
2021/04/28 02:51:04;;;;;;;41.15;31.85;;;;;;;13.93;82.62;99403.91;5053621;28;20467;-73
2021/04/28 02:53:32;;;;;;;57.80;37.83;;;;;;;13.86;82.61;99404.75;5054115;28;20029;-73
2021/04/28 02:55:58;;;;;;;65.63;40.47;;;;;;;13.85;82.63;99407.94;5052715;28;20056;-72
2021/04/28 02:58:25;;;;;;;42.63;24.90;;;;;;;13.92;82.97;99419.09;5036374;28;20060;-72
2021/04/28 03:00:55;;;;;;;38.13;22.52;;;;;;;13.85;82.40;99408.75;5052645;28;20108;-72
2021/04/28 03:03:21;;;;;;;43.95;27.88;;;;;;;13.76;82.21;99399.19;5052685;28;20079;-72
2021/04/28 03:05:55;;;;;;;35.05;20.08;;;;;;;13.88;82.44;99404.31;5052795;28;20029;-72
2021/04/28 03:08:22;;;;;;;31.27;19.40;;;;;;;13.84;82.07;99390.34;5052761;28;20118;-72
2021/04/28 03:10:49;;;;;;;39.05;24.70;;;;;;;13.84;82.70;99395.94;5052801;28;20029;-72
2021/04/28 03:13:15;;;;;;;35.13;18.95;;;;;;;13.85;81.86;99405.94;5052523;28;20036;-72
2021/04/28 03:15:41;;;;;;;28.63;17.05;;;;;;;13.99;81.98;99413.47;5052652;28;20051;-74
2021/04/28 03:18:09;;;;;;;23.92;12.27;;;;;;;14.01;81.60;99419.47;5052200;28;20072;-72
2021/04/28 03:20:35;;;;;;;28.67;13.55;;;;;;;13.93;81.58;99425.50;5052412;28;20037;-72
2021/04/28 03:23:03;;;;;;;26.38;15.80;;;;;;;13.99;81.88;99429.47;5052422;28;20117;-72
2021/04/28 03:25:29;;;;;;;45.75;27.23;;;;;;;14.09;81.13;99412.66;5052375;28;20033;-72
2021/04/28 03:27:55;;;;;;;37.90;22.33;;;;;;;13.95;81.47;99418.28;5052336;28;20086;-72
2021/04/28 03:30:21;;;;;;;30.63;17.33;;;;;;;14.02;81.38;99429.47;5052320;28;20036;-73
2021/04/28 03:32:50;;;;;;;24.10;14.43;;;;;;;13.99;81.16;99419.06;5052779;28;20055;-73
2021/04/28 03:35:15;;;;;;;44.13;26.10;;;;;;;14.09;81.25;99412.66;5052424;28;20035;-73
2021/04/28 03:37:43;;;;;;;28.95;13.82;;;;;;;14.19;80.37;99415.81;5052218;28;20029;-73
2021/04/28 03:40:09;;;;;;;22.63;10.45;;;;;;;14.20;80.16;99404.22;5052220;28;20033;-73
2021/04/28 03:42:34;;;;;;;27.00;10.23;;;;;;;14.27;80.53;99406.19;5052260;28;20031;-73
2021/04/28 03:45:00;;;;;;;17.40;8.07;;;;;;;14.11;80.63;99415.84;5053148;28;20123;-73
2021/04/28 03:47:25;;;;;;;24.05;11.75;;;;;;;14.05;80.98;99413.84;5053959;28;20091;-74
2021/04/28 03:49:51;;;;;;;20.60;10.52;;;;;;;14.03;81.13;99414.28;5053954;28;20120;-72
2021/04/28 03:52:17;;;;;;;16.95;10.30;;;;;;;14.12;81.32;99416.66;5052717;28;20519;-73
2021/04/28 03:57:26;;;;;;;;;;;;;;;14.27;80.28;99431.34;5053770;28;20040;-73
2021/04/28 03:59:54;;;;;;;14.32;6.28;;;;;;;14.24;80.49;99434.97;5052056;28;19913;-73
2021/04/28 04:02:47;;;;;;;18.75;7.55;;;;;;;14.28;80.47;99441.38;5053900;28;20037;-73
2021/04/28 04:05:13;;;;;;;22.27;8.73;;;;;;;14.28;80.20;99444.16;5053018;28;20460;-73
2021/04/28 04:07:39;;;;;;;15.40;8.07;;;;;;;14.31;80.54;99440.53;5053182;28;20032;-73
2021/04/28 04:10:06;;;;;;;22.83;7.57;;;;;;;14.37;80.29;99447.31;5053367;28;20438;-73
2021/04/28 04:12:34;;;;;;;14.30;6.47;;;;;;;14.44;79.86;99444.50;5053468;28;20348;-73
2021/04/28 04:14:59;;;;;;;22.92;8.68;;;;;;;14.56;79.35;99441.25;5052926;28;20503;-73
2021/04/28 04:17:25;;;;;;;24.40;10.00;;;;;;;14.59;78.97;99440.44;5053481;28;20064;-72
2021/04/28 04:19:52;;;;;;;19.38;9.77;;;;;;;14.47;79.38;99442.88;5055185;28;20098;-73
2021/04/28 04:22:17;;;;;;;20.20;8.35;;;;;;;14.52;79.35;99451.66;5039568;28;20029;-72
2021/04/28 04:24:43;;;;;;;14.00;7.35;;;;;;;14.46;79.65;99458.06;5055828;28;20102;-72
2021/04/28 04:27:09;;;;;;;14.38;6.55;;;;;;;14.41;79.63;99462.88;5055536;28;20029;-72
2021/04/28 04:29:34;;;;;;;18.63;6.50;;;;;;;14.39;79.81;99456.09;5055472;28;20036;-74
2021/04/28 04:32:00;;;;;;;16.73;7.05;;;;;;;14.43;79.72;99459.66;5055315;28;20033;-73
2021/04/28 04:34:25;;;;;;;20.55;7.20;;;;;;;14.52;79.38;99450.88;5055294;28;20033;-73
2021/04/28 04:36:51;;;;;;;20.02;7.72;;;;;;;14.53;79.60;99450.47;5055267;28;20032;-73
2021/04/28 04:39:35;;;;;;;13.15;6.25;;;;;;;14.66;79.26;99448.00;5055262;28;20067;-73
2021/04/28 04:42:00;;;;;;;;;;;;;;;14.70;79.07;99445.16;5056516;28;20460;-73
2021/04/28 04:44:26;;;;;;;16.77;6.00;;;;;;;14.77;78.77;99461.94;5055241;28;19931;-73
2021/04/28 04:46:54;;;;;;;16.13;6.85;;;;;;;14.77;79.17;99456.34;5055067;28;20036;-72
2021/04/28 04:49:20;;;;;;;12.88;6.10;;;;;;;14.81;78.65;99465.53;5055029;28;20127;-73
2021/04/28 04:51:45;;;;;;;23.83;7.38;;;;;;;14.88;79.00;99468.28;5055587;28;20117;-73
2021/04/28 04:54:13;;;;;;;20.02;6.38;;;;;;;14.94;78.68;99480.66;5055212;28;20052;-73
2021/04/28 04:56:39;;;;;;;21.02;6.07;;;;;;;15.07;78.28;99478.94;5055426;28;20499;-73
2021/04/28 04:59:04;;;;;;;16.67;6.35;;;;;;;15.11;77.94;99471.31;5055674;28;20025;-73
2021/04/28 05:01:30;;;;;;;21.88;7.40;;;;;;;15.26;77.48;99468.44;5055074;28;20029;-73
2021/04/28 05:03:56;;;;;;;15.80;7.25;;;;;;;15.40;76.55;99479.53;5054636;28;20086;-74
2021/04/28 05:06:23;;;;;;;18.60;7.15;;;;;;;15.59;76.23;99478.97;5054598;28;20033;-73
2021/04/28 05:08:48;;;;;;;20.40;7.90;;;;;;;16.32;73.99;99463.03;5054516;28;20527;-73
2021/04/28 05:11:14;;;;;;;23.20;7.40;;;;;;;16.40;72.66;99464.53;5054597;28;20029;-73
2021/04/28 05:13:39;;;;;;;20.20;6.18;;;;;;;16.37;73.19;99460.56;5055009;28;20037;-73
2021/04/28 05:16:05;;;;;;;16.23;6.90;;;;;;;16.38;72.72;99450.13;5054626;28;20032;-73
2021/04/28 05:18:31;;;;;;;25.35;7.47;;;;;;;16.44;73.03;99459.66;5054589;28;20078;-74
2021/04/28 05:20:56;;;;;;;17.77;7.68;;;;;;;16.55;72.43;99449.09;5054211;28;20496;-73
2021/04/28 05:23:22;;;;;;;15.75;6.93;;;;;;;16.63;72.38;99450.59;5054493;28;20033;-73
2021/04/28 05:25:48;;;;;;;19.50;7.35;;;;;;;16.58;72.47;99459.50;5054770;28;20024;-73
2021/04/28 05:28:13;;;;;;;22.13;7.32;;;;;;;16.59;72.45;99461.06;5054018;28;20365;-73
2021/04/28 05:30:39;;;;;;;18.52;7.25;;;;;;;16.74;72.15;99462.50;5054086;28;20463;-73
2021/04/28 05:33:07;;;;;;;15.57;7.18;;;;;;;16.83;70.99;99464.81;5054075;28;20036;-73
2021/04/28 05:35:33;;;;;;;22.23;8.80;;;;;;;16.85;70.89;99467.19;5053847;28;20021;-73
2021/04/28 05:38:01;;;;;;;21.13;9.57;;;;;;;16.85;71.69;99455.94;5053881;28;20032;-73
2021/04/28 05:40:28;;;;;;;26.48;10.20;;;;;;;16.98;71.20;99462.56;5053868;28;20067;-73
2021/04/28 05:42:54;;;;;;;18.95;8.60;;;;;;;17.40;70.25;99458.31;5055132;28;20528;-73
2021/04/28 05:45:20;;;;;;;16.25;7.57;;;;;;;17.61;69.31;99474.03;5053997;28;20020;-74
2021/04/28 05:47:45;;;;;;;25.95;10.52;;;;;;;17.68;69.40;99467.47;5053579;28;20060;-73
2021/04/28 05:50:18;;;;;;;19.42;8.13;;;;;;;18.50;66.53;99477.22;5054241;28;20029;-74
2021/04/28 05:52:49;;;;;;;21.37;7.70;;;;;;;18.45;65.47;99474.91;5053722;28;20037;-74
2021/04/28 05:55:20;;;;;;;13.43;6.95;;;;;;;18.94;64.17;99467.44;5054097;28;20044;-74
2021/04/28 05:57:45;;;;;;;19.23;7.43;;;;;;;19.42;61.87;99465.91;5055084;28;20033;-74
2021/04/28 06:00:13;;;;;;;20.75;8.32;;;;;;;19.19;62.18;99475.34;5053440;28;20084;-74
2021/04/28 06:02:39;;;;;;;20.35;6.75;;;;;;;19.66;59.73;99480.69;5053400;28;20025;-73
2021/04/28 06:05:06;;;;;;;16.85;6.47;;;;;;;19.67;59.69;99470.97;5053333;28;20029;-73
2021/04/28 06:07:32;;;;;;;23.13;7.88;;;;;;;19.18;60.77;99473.75;5053040;28;20021;-74
2021/04/28 06:10:00;;;;;;;16.70;5.57;;;;;;;19.01;60.99;99466.47;5054356;28;20021;-73
2021/04/28 06:12:25;;;;;;;14.15;4.80;;;;;;;19.16;61.54;99470.56;5054704;28;20021;-73
2021/04/28 06:14:51;;;;;;;17.73;5.60;;;;;;;18.69;62.72;99470.00;5053388;28;20186;-73
2021/04/28 06:17:19;;;;;;;21.40;6.55;;;;;;;18.54;64.80;99467.47;5052999;28;20083;-73
2021/04/28 06:19:49;;;;;;;15.80;6.22;;;;;;;19.27;61.64;99471.09;5053591;28;20053;-74
2021/04/28 06:22:18;;;;;;;17.63;5.88;;;;;;;19.35;60.67;99474.56;5053005;28;20037;-75
2021/04/28 06:24:43;;;;;;;14.02;5.80;;;;;;;19.58;60.38;99487.69;5053354;28;20025;-75
2021/04/28 06:27:15;;;;;;;22.80;7.75;;;;;;;19.61;59.52;99492.50;5053666;28;20044;-75
2021/04/28 06:29:41;;;;;;;22.38;6.57;;;;;;;20.19;58.77;99480.47;5052911;28;20029;-75
2021/04/28 06:32:09;;;;;;;14.77;6.13;;;;;;;20.69;56.12;99485.53;5053186;28;20410;-75
2021/04/28 06:34:37;;;;;;;19.30;6.95;;;;;;;21.56;54.21;99487.31;5054379;28;20086;-74
2021/04/28 06:37:06;;;;;;;15.70;5.78;;;;;;;22.28;51.99;99483.66;5053024;28;20029;-74
2021/04/28 06:39:34;;;;;;;19.80;6.85;;;;;;;22.64;50.19;99483.13;5053718;28;20025;-74
2021/04/28 06:42:00;;;;;;;16.75;5.93;;;;;;;23.66;47.67;99490.13;5052946;28;20036;-75
2021/04/28 06:44:25;;;;;;;18.58;5.88;;;;;;;22.49;50.40;99494.19;5052519;28;20399;-74
2021/04/28 06:46:51;;;;;;;13.90;4.90;;;;;;;22.76;49.85;99495.66;5052437;28;20093;-75
2021/04/28 06:49:16;;;;;;;16.48;6.28;;;;;;;23.23;49.63;99489.00;5052394;28;20391;-75
2021/04/28 06:51:44;;;;;;;15.48;5.60;;;;;;;22.69;49.40;99493.06;5052790;28;20033;-75
2021/04/28 06:54:09;;;;;;;18.60;7.22;;;;;;;22.60;50.74;99493.03;5052933;28;20029;-74
2021/04/28 06:56:35;;;;;;;15.77;7.65;;;;;;;23.79;47.95;99496.44;5052516;28;20578;-75
2021/04/28 06:59:03;;;;;;;25.40;8.05;;;;;;;23.31;48.08;99495.16;5052093;28;20021;-75
2021/04/28 07:01:29;;;;;;;16.63;6.53;;;;;;;22.60;50.02;99499.47;5052333;28;20091;-74
2021/04/28 07:03:54;;;;;;;15.23;5.57;;;;;;;22.57;50.57;99489.03;5052228;28;20025;-75
2021/04/28 07:06:20;;;;;;;17.38;6.13;;;;;;;23.59;48.17;99494.00;5052271;28;20033;-75
2021/04/28 07:08:45;;;;;;;11.43;4.65;;;;;;;23.23;46.94;99497.50;5052132;28;20057;-74
2021/04/28 07:11:14;;;;;;;16.70;5.35;;;;;;;23.87;46.06;99500.59;5052374;28;20087;-74
2021/04/28 07:13:42;;;;;;;13.38;4.35;;;;;;;23.37;47.33;99496.91;5052042;28;20047;-75
2021/04/28 07:16:10;;;;;;;12.82;5.43;;;;;;;23.14;47.40;99508.81;5052021;28;20124;-75
2021/04/28 07:18:35;;;;;;;16.90;4.90;;;;;;;24.18;45.24;99511.84;5052111;28;20460;-75
2021/04/28 07:21:02;;;;;;;15.50;5.53;;;;;;;23.73;45.34;99504.81;5052326;28;20051;-75
2021/04/28 07:23:30;;;;;;;15.27;5.55;;;;;;;23.67;44.99;99494.53;5052048;28;20039;-75
2021/04/28 07:26:02;;;;;;;11.48;4.95;;;;;;;23.45;46.40;99515.25;5052006;28;20029;-75
2021/04/28 07:28:32;;;;;;;11.93;4.78;;;;;;;23.39;45.76;99513.50;5052806;28;20464;-75
2021/04/28 07:31:01;;;;;;;14.50;4.57;;;;;;;22.63;47.78;99512.72;5052069;28;20017;-74
2021/04/28 07:33:26;;;;;;;12.93;4.45;;;;;;;23.39;45.77;99514.28;5052294;28;20095;-76
2021/04/28 07:35:56;;;;;;;16.05;4.72;;;;;;;23.11;46.48;99516.19;5052051;28;20474;-75
2021/04/28 07:38:22;;;;;;;22.15;5.38;;;;;;;23.80;45.03;99515.06;5051979;28;20025;-75
2021/04/28 07:40:48;;;;;;;18.75;5.47;;;;;;;23.60;43.95;99517.53;5051987;28;20054;-75
2021/04/28 07:43:13;;;;;;;11.65;4.30;;;;;;;23.10;45.84;99523.13;5051824;28;20029;-75
2021/04/28 07:45:39;;;;;;;16.95;5.40;;;;;;;22.46;47.95;99517.78;5051980;28;20037;-75
2021/04/28 07:48:08;;;;;;;17.23;6.80;;;;;;;22.16;48.99;99518.50;5052343;28;20032;-74
2021/04/28 07:50:38;;;;;;;28.83;5.60;;;;;;;22.99;46.54;99517.06;5051780;28;20040;-74
2021/04/28 07:53:05;;;;;;;15.27;4.53;;;;;;;22.20;47.62;99511.44;5055695;28;20032;-75
2021/04/28 07:55:30;;;;;;;15.50;5.13;;;;;;;23.05;45.38;99515.22;5057084;28;20029;-74
2021/04/28 07:58:02;;;;;;;12.00;4.75;;;;;;;23.35;45.10;99530.66;5056319;28;20374;-74
2021/04/28 08:00:28;;;;;;;12.05;4.70;;;;;;;23.45;43.94;99523.00;5056755;28;20039;-75
2021/04/28 08:02:57;;;;;;;13.75;5.40;;;;;;;23.16;45.33;99526.16;5056371;28;20037;-74
2021/04/28 08:05:25;;;;;;;11.77;4.95;;;;;;;23.16;43.81;99531.81;5055502;28;20033;-74
2021/04/28 08:07:52;;;;;;;13.00;5.38;;;;;;;23.70;42.58;99528.47;5055322;28;20132;-75
2021/04/28 08:10:18;;;;;;;13.57;4.43;;;;;;;24.43;41.81;99527.03;5055540;28;20067;-74
2021/04/28 08:12:44;;;;;;;8.50;4.00;;;;;;;24.67;41.64;99525.13;5056772;28;20033;-75
2021/04/28 08:15:10;;;;;;;17.75;5.63;;;;;;;25.84;39.26;99526.53;5055141;28;20025;-74
2021/04/28 08:17:41;;;;;;;11.18;4.63;;;;;;;26.00;38.39;99537.50;5055609;28;20426;-74
2021/04/28 08:20:09;;;;;;;14.00;4.70;;;;;;;25.85;38.64;99536.66;5055374;28;20033;-74
2021/04/28 08:22:35;;;;;;;17.45;5.68;;;;;;;24.28;41.95;99535.34;5056984;28;20029;-75
2021/04/28 08:25:09;;;;;;;17.90;7.20;;;;;;;23.65;43.20;99533.94;5055436;28;20116;-75
2021/04/28 08:27:37;;;;;;;13.32;5.55;;;;;;;23.08;44.80;99544.72;5055296;28;20037;-75
2021/04/28 08:30:08;;;;;;;13.68;6.38;;;;;;;23.31;43.95;99537.75;5055102;28;20075;-75
2021/04/28 08:32:34;;;;;;;14.02;5.28;;;;;;;23.17;43.61;99553.25;5055613;28;20033;-75
2021/04/28 08:35:00;;;;;;;11.93;5.22;;;;;;;23.65;42.11;99542.47;5055445;28;20048;-74
2021/04/28 08:37:28;;;;;;;16.88;4.95;;;;;;;23.52;41.98;99546.19;5055151;28;20448;-75
2021/04/28 08:39:56;;;;;;;11.48;4.30;;;;;;;23.61;42.04;99534.09;5054896;28;20025;-75
2021/04/28 08:42:21;;;;;;;12.57;4.22;;;;;;;24.74;39.65;99546.75;5054764;28;20063;-75
2021/04/28 08:44:47;;;;;;;10.27;4.00;;;;;;;23.88;41.25;99550.44;5055207;28;20064;-75
2021/04/28 08:47:16;;;;;;;14.82;4.82;;;;;;;23.73;41.16;99550.25;5055238;28;20456;-75
2021/04/28 08:49:42;;;;;;;8.63;4.35;;;;;;;24.19;40.66;99558.88;5054931;28;20028;-74
2021/04/28 08:52:14;;;;;;;11.18;4.03;;;;;;;23.56;41.89;99548.09;5055377;28;20051;-74
2021/04/28 08:54:42;;;;;;;12.40;3.83;;;;;;;23.15;42.41;99545.22;5054757;28;20025;-74
2021/04/28 08:57:10;;;;;;;17.60;4.07;;;;;;;23.62;42.11;99537.72;5054559;28;20482;-74
2021/04/28 08:59:36;;;;;;;10.75;4.85;;;;;;;24.21;41.25;99547.03;5054658;28;20060;-74
2021/04/28 09:02:37;;;;;;;14.88;5.00;;;;;;;24.23;41.19;99542.44;5055341;28;20056;-73
2021/04/28 09:05:10;;;;;;;12.45;4.50;;;;;;;25.50;38.87;99545.63;5026760;28;20368;-74
2021/04/28 09:07:36;;;;;;;17.42;5.43;;;;;;;25.98;38.26;99544.94;5054939;28;20043;-76
2021/04/28 09:10:08;;;;;;;12.13;3.80;;;;;;;25.48;38.82;99542.50;5055731;28;20464;-74
2021/04/28 09:12:35;;;;;;;12.38;4.53;;;;;;;25.45;39.00;99546.28;5055044;28;20534;-74
2021/04/28 09:15:00;;;;;;;10.90;4.63;;;;;;;24.78;40.45;99544.56;5055679;28;20029;-75
2021/04/28 09:17:26;;;;;;;12.15;4.85;;;;;;;23.88;41.89;99544.78;5054632;28;20116;-74
2021/04/28 09:20:13;;;;;;;15.63;4.60;;;;;;;24.13;42.19;99540.06;5054337;28;20027;-75
2021/04/28 09:22:39;;;;;;;11.77;4.28;;;;;;;23.92;42.48;99539.72;5054176;28;20040;-74
2021/04/28 09:25:07;;;;;;;11.20;4.18;;;;;;;24.60;41.25;99541.69;5054152;28;20033;-75
2021/04/28 09:27:38;;;;;;;9.85;4.28;;;;;;;25.18;40.23;99544.31;5054150;28;20036;-74
2021/04/28 09:30:21;;;;;;;11.30;3.90;;;;;;;25.11;39.55;99546.72;5055351;28;20021;-75
2021/04/28 09:32:47;;;;;;;15.93;4.75;;;;;;;25.51;39.61;99538.66;5055744;28;20033;-75
2021/04/28 09:35:15;;;;;;;8.65;3.83;;;;;;;25.39;39.29;99531.13;5054086;28;20056;-74
2021/04/28 09:37:57;;;;;;;13.52;4.60;;;;;;;24.67;40.83;99539.34;5055118;28;20024;-74
2021/04/28 09:40:40;;;;;;;16.70;4.43;;;;;;;23.96;42.69;99551.72;5053759;28;20025;-75
2021/04/28 09:43:06;;;;;;;;;;;;;;;24.33;42.07;99562.38;5054731;28;20035;-75
2021/04/28 09:45:50;;;;;;;14.73;3.72;;;;;;;25.31;39.46;99561.22;5053587;28;20003;-75
2021/04/28 09:48:25;;;;;;;8.30;3.40;;;;;;;26.05;38.01;99565.34;5055039;28;20032;-74
2021/04/28 09:51:11;;;;;;;10.25;3.33;;;;;;;26.96;36.05;99565.94;5037139;28;20045;-74
2021/04/28 09:53:42;;;;;;;9.00;3.30;;;;;;;26.67;35.46;99574.44;5054425;28;20074;-75
2021/04/28 09:56:20;;;;;;;8.23;3.13;;;;;;;26.50;35.98;99569.19;5053414;28;20036;-75
2021/04/28 09:58:53;;;;;;;6.13;2.97;;;;;;;26.38;36.08;99561.63;5053517;28;20039;-74
2021/04/28 10:01:32;;;;;;;14.75;3.80;;;;;;;26.15;36.67;99571.75;5053947;28;20025;-75
2021/04/28 10:03:58;;;;;;;8.02;3.25;;;;;;;26.75;35.34;99545.03;5053423;28;20084;-74
2021/04/28 10:06:43;;;;;;;11.32;3.10;;;;;;;27.61;35.31;99560.31;5053847;28;20063;-74
2021/04/28 10:09:28;;;;;;;11.02;3.95;;;;;;;26.77;37.11;99567.38;5052994;28;20558;-74
2021/04/28 10:11:54;;;;;;;12.63;3.65;;;;;;;26.39;37.24;99568.91;5053094;28;20028;-75
2021/04/28 10:14:20;;;;;;;11.52;3.33;;;;;;;26.54;36.51;99569.00;5053965;28;20033;-75
2021/04/28 10:16:48;;;;;;;8.18;2.78;;;;;;;27.63;34.08;99572.81;5053035;28;20091;-75
2021/04/28 10:19:19;;;;;;;9.45;3.00;;;;;;;27.17;34.38;99568.94;5054749;28;20067;-75
2021/04/28 10:21:46;;;;;;;7.65;3.00;;;;;;;27.02;34.45;99563.97;5054336;28;20033;-75
2021/04/28 10:24:11;;;;;;;10.77;3.70;;;;;;;26.50;35.44;99568.38;5036305;28;20061;-75
2021/04/28 10:26:41;;;;;;;10.20;3.53;;;;;;;27.46;34.72;99566.03;5052931;28;20064;-75
2021/04/28 10:29:08;;;;;;;7.65;2.83;;;;;;;27.54;34.66;99564.38;5053909;28;20107;-75
2021/04/28 10:31:37;;;;;;;8.98;3.15;;;;;;;27.20;34.26;99550.78;5036705;28;20021;-76
2021/04/28 10:34:03;;;;;;;10.35;2.47;;;;;;;27.25;33.97;99552.97;5052733;28;20033;-75
2021/04/28 10:36:30;;;;;;;10.95;2.85;;;;;;;26.83;34.99;99573.97;5054079;28;20046;-75
2021/04/28 10:38:56;;;;;;;11.65;3.28;;;;;;;27.17;34.64;99574.63;5053326;28;20365;-75
2021/04/28 10:41:44;;;;;;;9.48;3.05;;;;;;;27.24;34.61;99574.22;5053015;28;20021;-76
2021/04/28 10:44:29;;;;;;;9.10;2.88;;;;;;;26.84;35.23;99576.31;5053219;28;20040;-75
2021/04/28 10:47:13;;;;;;;11.98;3.15;;;;;;;26.76;36.52;99575.13;5038873;28;20396;-75
2021/04/28 10:50:18;;;;;;;7.03;3.13;;;;;;;26.69;35.77;99580.44;5053440;28;20047;-75
2021/04/28 10:53:16;;;;;;;7.82;2.83;;;;;;;26.67;36.16;99568.72;5052519;28;20028;-74
2021/04/28 10:56:01;;;;;;;12.70;3.08;;;;;;;26.20;37.53;99578.88;5052830;28;20025;-75
2021/04/28 10:58:27;;;;;;;13.02;6.43;;;;;;;25.96;37.16;99559.69;5052726;28;20029;-75
2021/04/28 11:00:59;;;;;;;10.35;3.70;;;;;;;26.26;38.25;99572.03;5052966;28;20036;-75
2021/04/28 11:03:34;;;;;;;12.52;5.40;;;;;;;26.13;38.22;99575.09;5052369;28;20112;-75
2021/04/28 11:06:20;;;;;;;26.73;9.82;;;;;;;26.41;38.18;99583.47;5053051;28;20119;-75
2021/04/28 11:08:49;;;;;;;13.45;4.88;;;;;;;26.24;38.01;99573.78;5051947;28;20072;-75
2021/04/28 11:11:30;;;;;;;12.55;3.20;;;;;;;26.01;38.24;99573.28;5052300;28;20036;-75
2021/04/28 11:14:11;;;;;;;11.30;3.97;;;;;;;25.71;39.15;99577.19;5052367;28;20123;-75
2021/04/28 11:16:44;;;;;;;12.82;3.88;;;;;;;25.87;38.96;99582.53;5052229;28;20025;-75
2021/04/28 11:19:26;;;;;;;9.32;3.30;;;;;;;25.66;39.23;99577.84;5053801;28;20055;-76
2021/04/28 11:22:07;;;;;;;12.38;3.90;;;;;;;25.53;39.78;99561.78;5051958;28;20057;-75
2021/04/28 11:25:10;;;;;;;11.18;4.72;;;;;;;25.19;40.63;99582.13;5052928;28;20418;-75
2021/04/28 11:27:44;;;;;;;12.60;3.92;;;;;;;24.88;41.62;99580.25;5052649;28;20357;-75
2021/04/28 11:30:56;;;;;;;10.98;3.53;;;;;;;24.91;41.24;99582.13;5052385;28;20029;-75
2021/04/28 11:33:30;;;;;;;13.82;4.35;;;;;;;25.06;41.52;99574.56;5048755;28;20033;-75
2021/04/28 11:35:55;;;;;;;15.15;7.45;;;;;;;25.22;41.37;99581.16;5052562;28;20438;-75